createdAt,value
2022-12-05T00:01:43.327Z,7.97
2022-12-05T00:04:13.039Z,8.40
2022-12-05T00:06:41.800Z,7.30
2022-12-05T00:09:10.262Z,7.82
2022-12-05T00:11:39.728Z,7.88
2022-12-05T00:14:08.777Z,7.57
2022-12-05T00:16:38.616Z,7.95
2022-12-05T00:19:08.713Z,8.52
2022-12-05T00:21:39.662Z,8.15
2022-12-05T00:24:09.183Z,7.60
2022-12-05T00:26:39.258Z,7.65
2022-12-05T00:29:06.142Z,8.23
2022-12-05T00:31:33.352Z,7.28
2022-12-05T00:34:04.100Z,8.13
2022-12-05T00:36:35.602Z,7.70
2022-12-05T00:39:06.744Z,7.60
2022-12-05T00:41:33.980Z,7.78
2022-12-05T00:44:02.289Z,7.18
2022-12-05T00:46:33.616Z,7.80
2022-12-05T00:49:02.000Z,7.80
2022-12-05T00:51:34.538Z,7.70
2022-12-05T00:54:04.081Z,7.85
2022-12-05T00:56:32.183Z,8.07
2022-12-05T00:59:00.699Z,7.88
2022-12-05T01:01:36.788Z,7.35
2022-12-05T01:04:14.531Z,7.40
2022-12-05T01:06:43.030Z,8.20
2022-12-05T01:09:13.306Z,7.55
2022-12-05T01:11:41.813Z,7.40
2022-12-05T01:14:13.702Z,7.85
2022-12-05T01:16:43.020Z,7.93
2022-12-05T01:19:15.150Z,7.95
2022-12-05T01:21:46.029Z,7.70
2022-12-05T01:24:13.973Z,8.30
2022-12-05T01:26:42.517Z,8.20
2022-12-05T01:29:10.555Z,7.85
2022-12-05T01:34:08.213Z,7.43
2022-12-05T01:36:39.449Z,7.22
2022-12-05T01:39:07.753Z,7.97
2022-12-05T01:41:37.833Z,8.10
2022-12-05T01:44:27.884Z,8.05
2022-12-05T01:46:56.128Z,7.90
2022-12-05T01:49:31.375Z,7.55
2022-12-05T01:52:07.867Z,7.60
2022-12-05T01:54:37.335Z,7.65
2022-12-05T01:57:10.953Z,7.55
2022-12-05T01:59:41.876Z,7.78
2022-12-05T02:02:09.311Z,8.25
2022-12-05T02:04:43.791Z,7.50
2022-12-05T02:07:10.979Z,7.90
2022-12-05T02:09:38.048Z,7.43
2022-12-05T02:12:05.278Z,7.72
2022-12-05T02:14:32.063Z,7.82
2022-12-05T02:17:19.932Z,7.43
2022-12-05T02:22:32.704Z,7.70
2022-12-05T02:25:14.698Z,7.82
2022-12-05T02:28:00.123Z,8.55
2022-12-05T02:30:39.310Z,7.53
2022-12-05T02:33:30.379Z,8.27
2022-12-05T02:36:18.357Z,7.70
2022-12-05T02:41:36.410Z,8.13
2022-12-05T02:44:12.554Z,7.30
2022-12-05T02:46:45.053Z,7.90
2022-12-05T02:49:16.587Z,7.65
2022-12-05T02:51:48.463Z,8.15
2022-12-05T02:54:22.387Z,8.32
2022-12-05T02:56:50.864Z,8.40
2022-12-05T02:59:23.106Z,7.97
2022-12-05T03:01:53.255Z,8.02
2022-12-05T03:04:24.395Z,7.95
2022-12-05T03:07:12.504Z,8.50
2022-12-05T03:09:41.893Z,8.25
2022-12-05T03:12:25.568Z,8.57
2022-12-05T03:15:08.948Z,8.50
2022-12-05T03:18:06.727Z,8.45
2022-12-05T03:23:37.249Z,8.40
2022-12-05T03:26:26.016Z,8.63
2022-12-05T03:29:15.086Z,8.43
2022-12-05T03:31:49.744Z,8.10
2022-12-05T03:34:26.701Z,8.20
2022-12-05T03:36:54.737Z,8.68
2022-12-05T03:39:28.791Z,8.75
2022-12-05T03:42:07.994Z,8.25
2022-12-05T03:44:40.966Z,8.70
2022-12-05T03:47:17.052Z,8.80
2022-12-05T03:49:49.676Z,8.57
2022-12-05T03:52:27.678Z,8.43
2022-12-05T03:57:37.719Z,8.82
2022-12-05T04:00:25.430Z,8.60
2022-12-05T04:03:00.914Z,8.15
2022-12-05T04:05:33.388Z,8.55
2022-12-05T04:08:19.835Z,8.77
2022-12-05T04:10:50.659Z,8.27
2022-12-05T04:13:24.337Z,9.32
2022-12-05T04:16:17.399Z,8.77
2022-12-05T04:19:03.443Z,8.38
2022-12-05T04:21:40.893Z,8.57
2022-12-05T04:24:32.111Z,8.85
2022-12-05T04:27:15.422Z,9.15
2022-12-05T04:29:55.283Z,9.02
2022-12-05T04:32:28.195Z,8.98
2022-12-05T04:35:00.303Z,9.30
2022-12-05T04:37:36.738Z,8.98
2022-12-05T04:40:12.245Z,9.00
2022-12-05T04:42:43.254Z,8.52
2022-12-05T04:45:15.112Z,8.77
2022-12-05T04:47:50.476Z,8.93
2022-12-05T04:50:19.097Z,8.80
2022-12-05T04:52:55.354Z,10.07
2022-12-05T04:55:28.200Z,8.85
2022-12-05T04:58:02.021Z,9.27
2022-12-05T05:00:31.297Z,9.05
2022-12-05T05:03:08.336Z,9.02
2022-12-05T05:05:37.909Z,9.55
2022-12-05T05:08:05.179Z,8.93
2022-12-05T05:10:47.603Z,9.43
2022-12-05T05:13:14.753Z,9.18
2022-12-05T05:15:41.743Z,9.55
2022-12-05T05:18:10.318Z,9.57
2022-12-05T05:20:39.706Z,8.73
2022-12-05T05:23:06.595Z,9.43
2022-12-05T05:25:33.443Z,9.15
2022-12-05T05:28:00.326Z,9.40
2022-12-05T05:30:27.704Z,9.40
2022-12-05T05:32:54.915Z,9.30
2022-12-05T05:35:21.932Z,9.77
2022-12-05T05:37:49.107Z,9.35
2022-12-05T05:40:15.949Z,8.90
2022-12-05T05:42:47.803Z,9.10
2022-12-05T05:45:16.171Z,9.40
2022-12-05T05:47:47.563Z,9.80
2022-12-05T05:50:20.925Z,9.32
2022-12-05T05:52:51.312Z,9.25
2022-12-05T05:55:18.562Z,9.57
2022-12-05T05:57:45.486Z,9.30
2022-12-05T06:00:13.233Z,9.65
2022-12-05T06:02:40.295Z,9.68
2022-12-05T06:05:07.729Z,9.73
2022-12-05T06:07:37.553Z,10.07
2022-12-05T06:10:05.223Z,10.05
2022-12-05T06:12:33.971Z,9.70
2022-12-05T06:15:00.911Z,9.13
2022-12-05T06:17:27.763Z,9.82
2022-12-05T06:19:55.134Z,9.63
2022-12-05T06:22:22.346Z,10.02
2022-12-05T06:24:49.257Z,9.68
2022-12-05T06:27:16.192Z,9.50
2022-12-05T06:29:43.046Z,9.70
2022-12-05T06:32:12.130Z,9.80
2022-12-05T06:34:39.074Z,10.20
2022-12-05T06:37:06.989Z,9.32
2022-12-05T06:39:33.966Z,9.48
2022-12-05T06:42:03.457Z,9.38
2022-12-05T06:44:30.813Z,9.77
2022-12-05T06:46:57.852Z,10.00
2022-12-05T06:49:31.678Z,9.80
2022-12-05T06:52:01.577Z,9.75
2022-12-05T06:54:28.374Z,9.52
2022-12-05T06:56:55.475Z,10.00
2022-12-05T06:59:22.713Z,10.13
2022-12-05T07:01:50.702Z,10.00
2022-12-05T07:04:25.912Z,9.32
2022-12-05T07:06:55.173Z,9.68
2022-12-05T07:09:44.502Z,9.90
2022-12-05T07:12:12.502Z,20.08
2022-12-05T07:14:47.563Z,16.52
2022-12-05T07:17:15.269Z,12.70
2022-12-05T07:19:42.446Z,11.80
2022-12-05T07:22:13.908Z,16.08
2022-12-05T07:24:45.146Z,12.70
2022-12-05T07:27:13.204Z,11.27
2022-12-05T07:29:40.199Z,11.27
2022-12-05T07:32:07.761Z,10.52
2022-12-05T07:34:35.072Z,11.52
2022-12-05T07:37:02.061Z,12.03
2022-12-05T07:39:29.720Z,11.85
2022-12-05T07:41:56.941Z,13.70
2022-12-05T07:44:23.815Z,13.63
2022-12-05T07:46:53.627Z,14.35
2022-12-05T07:49:20.901Z,15.68
2022-12-05T07:51:47.865Z,17.27
2022-12-05T07:54:14.813Z,18.65
2022-12-05T07:56:47.405Z,18.25
2022-12-05T07:59:14.720Z,16.45
2022-12-05T08:01:41.803Z,16.25
2022-12-05T08:04:14.797Z,17.85
2022-12-05T08:06:42.306Z,17.42
2022-12-05T08:09:09.717Z,16.73
2022-12-05T08:11:36.999Z,17.00
2022-12-05T08:14:05.869Z,16.93
2022-12-05T08:16:34.432Z,15.77
2022-12-05T08:19:04.673Z,15.35
2022-12-05T08:21:31.574Z,16.13
2022-12-05T08:23:59.064Z,14.90
2022-12-05T08:26:31.492Z,15.73
2022-12-05T08:29:01.185Z,15.05
2022-12-05T08:31:30.185Z,15.40
2022-12-05T08:33:59.702Z,15.45
2022-12-05T08:36:33.818Z,15.18
2022-12-05T08:39:04.790Z,14.32
2022-12-05T08:41:32.623Z,16.50
2022-12-05T08:44:06.371Z,14.55
2022-12-05T08:46:36.306Z,14.60
2022-12-05T08:49:04.911Z,13.65
2022-12-05T08:51:32.313Z,14.35
2022-12-05T08:53:59.321Z,13.55
2022-12-05T08:56:27.720Z,13.18
2022-12-05T08:59:05.310Z,13.88
2022-12-05T09:01:39.264Z,14.05
2022-12-05T09:04:07.337Z,13.95
2022-12-05T09:06:36.006Z,14.32
2022-12-05T09:09:06.844Z,14.50
2022-12-05T09:11:36.201Z,14.07
2022-12-05T09:14:06.182Z,14.35
2022-12-05T09:16:38.605Z,12.52
2022-12-05T09:19:11.228Z,12.48
2022-12-05T09:21:38.456Z,12.85
2022-12-05T09:24:05.506Z,16.52
2022-12-05T09:26:34.597Z,17.63
2022-12-05T09:29:03.188Z,18.17
2022-12-05T09:31:30.805Z,18.48
2022-12-05T09:33:58.112Z,16.58
2022-12-05T09:36:31.026Z,16.10
2022-12-05T09:39:03.492Z,15.82
2022-12-05T09:42:09.183Z,16.42
2022-12-05T09:44:51.644Z,15.65
2022-12-05T09:47:30.955Z,15.70
2022-12-05T09:50:19.478Z,17.40
2022-12-05T09:53:14.338Z,19.60
2022-12-05T09:56:00.831Z,19.60
2022-12-05T09:58:40.278Z,17.80
2022-12-05T10:01:18.906Z,17.63
2022-12-05T10:04:11.714Z,18.00
2022-12-05T10:06:52.796Z,16.95
2022-12-05T10:09:57.339Z,16.15
2022-12-05T10:12:33.065Z,15.93
2022-12-05T10:15:31.630Z,15.80
2022-12-05T10:18:53.297Z,15.23
2022-12-05T10:21:40.370Z,15.10
2022-12-05T10:24:20.893Z,14.83
2022-12-05T10:26:59.880Z,13.57
2022-12-05T10:29:58.199Z,14.75
2022-12-05T10:32:48.720Z,17.85
2022-12-05T10:35:20.864Z,17.77
2022-12-05T10:38:01.939Z,16.65
2022-12-05T10:40:36.458Z,16.63
2022-12-05T10:43:05.813Z,16.70
2022-12-05T10:45:41.784Z,18.33
2022-12-05T10:48:15.919Z,20.08
2022-12-05T10:50:45.660Z,19.15
2022-12-05T10:53:27.825Z,17.67
2022-12-05T10:56:28.669Z,17.23
2022-12-05T10:58:58.633Z,18.08
2022-12-05T11:01:27.899Z,16.20
2022-12-05T11:06:32.701Z,16.23
2022-12-05T11:09:14.757Z,16.23
2022-12-05T11:12:02.725Z,16.20
2022-12-05T11:17:00.919Z,16.45
2022-12-05T11:19:32.571Z,15.75
2022-12-05T11:22:00.898Z,15.55
2022-12-05T11:24:35.567Z,15.27
2022-12-05T11:27:17.729Z,14.60
2022-12-05T11:29:55.356Z,15.50
2022-12-05T11:32:27.431Z,14.55
2022-12-05T11:35:01.827Z,14.50
2022-12-05T11:37:44.357Z,14.35
2022-12-05T11:40:35.219Z,13.32
2022-12-05T11:43:42.827Z,13.30
2022-12-05T11:46:15.609Z,13.63
2022-12-05T11:48:58.323Z,12.60
2022-12-05T11:51:47.278Z,13.18
2022-12-05T11:55:05.500Z,12.85
2022-12-05T11:57:51.837Z,12.07
2022-12-05T12:00:27.195Z,11.80
2022-12-05T12:03:06.943Z,13.55
2022-12-05T12:05:36.969Z,16.40
2022-12-05T12:08:27.796Z,14.40
2022-12-05T12:11:43.224Z,14.85
2022-12-05T12:14:14.613Z,13.98
2022-12-05T12:16:56.867Z,13.35
2022-12-05T12:19:48.344Z,13.75
2022-12-05T12:22:44.386Z,13.05
2022-12-05T12:25:27.648Z,12.98
2022-12-05T12:28:16.368Z,9.90
2022-12-05T12:30:43.131Z,13.00
2022-12-05T12:33:35.174Z,12.13
2022-12-05T12:36:07.626Z,11.70
2022-12-05T12:38:34.918Z,11.27
2022-12-05T12:41:24.120Z,11.83
2022-12-05T12:43:57.110Z,11.52
2022-12-05T12:46:38.334Z,14.80
2022-12-05T12:49:22.844Z,21.73
2022-12-05T12:51:55.989Z,23.55
2022-12-05T12:54:54.745Z,24.58
2022-12-05T12:57:24.067Z,25.30
2022-12-05T13:00:00.506Z,26.38
2022-12-05T13:02:44.873Z,24.13
2022-12-05T13:05:39.660Z,24.05
2022-12-05T13:08:29.330Z,23.92
2022-12-05T13:10:59.978Z,20.88
2022-12-05T13:13:34.061Z,22.00
2022-12-05T13:16:06.380Z,21.58
2022-12-05T13:18:36.344Z,18.90
2022-12-05T13:21:08.796Z,18.95
2022-12-05T13:23:47.658Z,19.92
2022-12-05T13:26:15.992Z,18.92
2022-12-05T13:29:01.463Z,17.15
2022-12-05T13:31:55.081Z,17.85
2022-12-05T13:34:31.077Z,10.13
2022-12-05T13:37:18.893Z,15.02
2022-12-05T13:40:13.558Z,14.57
2022-12-05T13:42:40.954Z,12.65
2022-12-05T13:45:11.307Z,13.83
2022-12-05T13:47:47.411Z,12.85
2022-12-05T13:50:28.115Z,14.52
2022-12-05T13:53:02.145Z,13.77
2022-12-05T13:55:36.553Z,14.07
2022-12-05T13:58:22.684Z,12.95
2022-12-05T14:00:53.359Z,14.82
2022-12-05T14:03:36.011Z,10.88
2022-12-05T14:06:03.700Z,13.35
2022-12-05T14:08:39.543Z,13.93
2022-12-05T14:11:08.997Z,13.70
2022-12-05T14:13:36.366Z,12.85
2022-12-05T14:16:25.296Z,12.77
2022-12-05T14:19:21.330Z,12.45
2022-12-05T14:21:59.148Z,12.65
2022-12-05T14:24:58.173Z,12.43
2022-12-05T14:28:19.459Z,12.05
2022-12-05T14:31:17.140Z,13.07
2022-12-05T14:33:47.088Z,12.20
2022-12-05T14:36:18.935Z,11.50
2022-12-05T14:38:45.834Z,9.57
2022-12-05T14:41:36.085Z,10.38
2022-12-05T14:44:18.574Z,11.40
2022-12-05T14:46:48.382Z,11.10
2022-12-05T14:49:37.983Z,11.13
2022-12-05T14:52:12.233Z,10.65
2022-12-05T14:54:40.945Z,11.45
2022-12-05T14:57:16.596Z,17.08
2022-12-05T14:59:54.813Z,10.35
2022-12-05T15:02:32.102Z,9.73
2022-12-05T15:05:30.483Z,10.57
2022-12-05T15:07:59.225Z,10.80
2022-12-05T15:10:32.507Z,10.30
2022-12-05T15:13:21.751Z,9.43
2022-12-05T15:15:59.632Z,8.98
2022-12-05T15:18:40.557Z,9.95
2022-12-05T15:21:34.757Z,10.32
2022-12-05T15:24:20.724Z,9.18
2022-12-05T15:26:52.834Z,9.48
2022-12-05T15:29:25.662Z,9.75
2022-12-05T15:32:25.828Z,9.40
2022-12-05T15:35:12.257Z,9.20
2022-12-05T15:38:01.998Z,8.38
2022-12-05T15:40:37.821Z,7.85
2022-12-05T15:43:48.539Z,7.88
2022-12-05T15:46:25.286Z,7.63
2022-12-05T15:48:53.954Z,9.60
2022-12-05T15:51:26.724Z,8.35
2022-12-05T15:54:03.845Z,8.10
2022-12-05T15:56:51.211Z,7.65
2022-12-05T15:59:44.515Z,7.40
2022-12-05T16:02:28.592Z,6.78
2022-12-05T16:05:05.528Z,6.88
2022-12-05T16:07:34.934Z,7.03
2022-12-05T16:10:02.572Z,7.22
2022-12-05T16:12:42.917Z,6.72
2022-12-05T16:15:31.170Z,6.50
2022-12-05T16:18:03.167Z,6.82
2022-12-05T16:20:35.100Z,6.20
2022-12-05T16:23:24.756Z,6.68
2022-12-05T16:25:54.074Z,6.85
2022-12-05T16:28:22.336Z,7.10
2022-12-05T16:33:30.256Z,6.30
2022-12-05T16:36:07.231Z,6.57
2022-12-05T16:38:37.302Z,6.35
2022-12-05T16:41:09.247Z,6.50
2022-12-05T16:43:36.438Z,6.13
2022-12-05T16:46:15.728Z,5.70
2022-12-05T16:49:08.709Z,6.10
2022-12-05T16:51:42.061Z,5.82
2022-12-05T16:54:12.337Z,6.00
2022-12-05T16:56:39.869Z,5.70
2022-12-05T16:59:14.027Z,6.10
2022-12-05T17:01:40.919Z,6.30
2022-12-05T17:04:11.789Z,5.47
2022-12-05T17:06:39.733Z,6.35
2022-12-05T17:09:06.969Z,5.47
2022-12-05T17:11:37.387Z,5.80
2022-12-05T17:14:04.553Z,6.20
2022-12-05T17:16:31.870Z,6.28
2022-12-05T17:18:59.147Z,5.70
2022-12-05T17:21:29.729Z,5.70
2022-12-05T17:23:56.572Z,5.18
2022-12-05T17:26:24.519Z,5.35
2022-12-05T17:28:51.630Z,5.85
2022-12-05T17:31:26.147Z,5.38
2022-12-05T17:33:56.370Z,5.82
2022-12-05T17:36:26.114Z,5.28
2022-12-05T17:38:53.359Z,5.20
2022-12-05T17:41:25.112Z,5.50
2022-12-05T17:43:52.456Z,5.85
2022-12-05T17:46:23.892Z,5.53
2022-12-05T17:48:52.210Z,5.38
2022-12-05T17:53:49.552Z,5.43
2022-12-05T17:56:16.736Z,5.68
2022-12-05T17:58:44.042Z,5.20
2022-12-05T18:01:19.703Z,4.80
2022-12-05T18:03:48.218Z,5.65
2022-12-05T18:06:16.383Z,5.32
2022-12-05T18:13:42.643Z,5.47
2022-12-05T18:16:12.474Z,5.63
2022-12-05T18:18:39.781Z,5.15
2022-12-05T18:21:12.070Z,5.90
2022-12-05T18:23:41.012Z,5.10
2022-12-05T18:26:09.917Z,5.20
2022-12-05T18:28:38.909Z,5.22
2022-12-05T18:31:15.568Z,5.00
2022-12-05T18:33:46.517Z,4.90
2022-12-05T18:36:20.168Z,5.22
2022-12-05T18:38:54.623Z,5.10
2022-12-05T18:41:28.910Z,5.30
2022-12-05T18:43:56.020Z,5.32
2022-12-05T18:46:23.503Z,4.78
2022-12-05T18:48:50.812Z,5.15
2022-12-05T18:51:23.259Z,5.00
2022-12-05T18:53:53.274Z,5.22
2022-12-05T18:56:31.739Z,4.95
2022-12-05T19:01:28.266Z,5.00
2022-12-05T19:03:57.182Z,4.93
2022-12-05T19:06:27.422Z,5.35
2022-12-05T19:08:56.751Z,5.30
2022-12-05T19:11:26.745Z,5.13
2022-12-05T19:13:59.000Z,5.20
2022-12-05T19:16:28.455Z,4.90
2022-12-05T19:18:57.882Z,5.50
2022-12-05T19:21:26.362Z,4.90
2022-12-05T19:23:53.899Z,5.22
2022-12-05T19:26:24.008Z,5.18
2022-12-05T19:28:51.847Z,4.85
2022-12-05T19:31:23.735Z,5.20
2022-12-05T19:33:53.385Z,5.20
2022-12-05T19:36:29.245Z,5.07
2022-12-05T19:38:57.107Z,5.05
2022-12-05T19:41:30.952Z,5.25
2022-12-05T19:44:02.353Z,5.90
2022-12-05T19:46:33.330Z,5.30
2022-12-05T19:49:03.182Z,5.20
2022-12-05T19:51:31.693Z,5.75
2022-12-05T19:54:04.158Z,5.53
2022-12-05T19:56:33.369Z,5.55
2022-12-05T19:59:00.785Z,5.68
2022-12-05T20:01:33.656Z,5.18
2022-12-05T20:04:08.794Z,5.25
2022-12-05T20:06:40.957Z,5.28
2022-12-05T20:09:09.637Z,5.60
2022-12-05T20:11:39.417Z,5.72
2022-12-05T20:14:07.763Z,5.20
2022-12-05T20:16:35.992Z,5.50
2022-12-05T20:19:04.495Z,5.28
2022-12-05T20:21:33.330Z,5.10
2022-12-05T20:24:01.990Z,5.65
2022-12-05T20:26:32.302Z,5.72
2022-12-05T20:29:02.647Z,5.10
2022-12-05T20:31:32.266Z,5.57
2022-12-05T20:33:59.568Z,5.50
2022-12-05T20:36:29.811Z,5.17
2022-12-05T20:39:03.044Z,5.18
2022-12-05T20:41:30.888Z,4.90
2022-12-05T20:44:00.880Z,4.93
2022-12-05T20:46:29.137Z,5.13
2022-12-05T20:48:56.741Z,5.50
2022-12-05T20:51:29.313Z,5.40
2022-12-05T20:53:58.914Z,5.60
2022-12-05T20:56:29.176Z,5.50
2022-12-05T20:59:00.300Z,5.88
2022-12-05T21:01:28.640Z,5.55
2022-12-05T21:03:59.151Z,5.90
2022-12-05T21:06:37.814Z,5.68
2022-12-05T21:09:15.476Z,5.75
2022-12-05T21:11:43.394Z,5.75
2022-12-05T21:14:11.375Z,5.47
2022-12-05T21:16:38.481Z,5.68
2022-12-05T21:19:05.484Z,5.43
2022-12-05T21:21:34.477Z,5.70
2022-12-05T21:24:03.569Z,5.90
2022-12-05T21:26:32.478Z,6.13
2022-12-05T21:29:01.174Z,5.70
2022-12-05T21:31:33.617Z,5.35
2022-12-05T21:34:06.585Z,5.72
2022-12-05T21:36:38.782Z,5.80
2022-12-05T21:39:07.347Z,5.97
2022-12-05T21:41:35.334Z,5.75
2022-12-05T21:44:03.641Z,5.70
2022-12-05T21:46:31.572Z,5.78
2022-12-05T21:48:59.560Z,6.25
2022-12-05T21:51:27.134Z,6.07
2022-12-05T21:53:54.524Z,5.80
2022-12-05T21:56:23.576Z,5.72
2022-12-05T21:58:51.316Z,5.97
2022-12-05T22:01:22.332Z,5.28
2022-12-05T22:03:52.903Z,6.03
2022-12-05T22:06:20.160Z,5.78
2022-12-05T22:08:47.462Z,5.80
2022-12-05T22:11:20.342Z,5.90
2022-12-05T22:13:51.008Z,5.35
2022-12-05T22:16:19.029Z,5.65
2022-12-05T22:18:46.237Z,5.65
2022-12-05T22:21:21.547Z,5.87
2022-12-05T22:23:49.554Z,5.47
2022-12-05T22:26:19.732Z,6.00
2022-12-05T22:28:47.925Z,6.00
2022-12-05T22:33:43.840Z,5.43
2022-12-05T22:36:15.356Z,5.88
2022-12-05T22:38:44.972Z,5.78
2022-12-05T22:41:14.892Z,5.30
2022-12-05T22:43:43.569Z,6.00
2022-12-05T22:46:18.593Z,5.97
2022-12-05T22:48:47.262Z,5.35
2022-12-05T22:51:15.244Z,5.40
2022-12-05T22:53:42.821Z,5.50
2022-12-05T22:56:21.693Z,5.40
2022-12-05T22:58:49.131Z,5.40
2022-12-05T23:01:19.383Z,5.20
2022-12-05T23:03:48.631Z,5.28
2022-12-05T23:06:18.264Z,5.40
2022-12-05T23:08:49.947Z,5.03
2022-12-05T23:11:19.170Z,5.57
2022-12-05T23:13:48.147Z,4.93
2022-12-05T23:16:23.681Z,5.35
2022-12-05T23:18:53.835Z,4.97
2022-12-05T23:21:29.574Z,4.93
2022-12-05T23:23:58.604Z,5.13
2022-12-05T23:26:28.841Z,5.80
2022-12-05T23:28:55.814Z,5.57
2022-12-05T23:31:23.916Z,5.43
2022-12-05T23:33:53.033Z,5.40
2022-12-05T23:36:20.775Z,4.90
2022-12-05T23:38:52.514Z,5.32
2022-12-05T23:41:24.361Z,5.10
2022-12-05T23:43:52.386Z,5.40
2022-12-05T23:46:29.319Z,4.97
2022-12-05T23:48:57.535Z,5.30
2022-12-05T23:53:55.226Z,5.07
2022-12-05T23:56:27.949Z,4.78
2022-12-05T23:58:56.303Z,5.20
